Time;durP1;ratioP1;P1;durP2;ratioP2;P2;SDS_P1;SDS_P2;PMS_P1;PMS_P2;Temp;Humidity;BMP_temperature;BMP_pressure;BME280_temperature;BME280_humidity;BME280_pressure;Samples;Min_cycle;Max_cycle;Signal;HPM_P1;HPM_P2
2023/12/07 00:02:25;;;;;;;89.40;33.55;;;;;;;;;;5015100;28;20437;-66
2023/12/07 00:05:11;;;;;;;94.15;31.95;;;;;;;;;;5014830;28;20022;-66
2023/12/07 00:07:56;;;;;;;97.20;33.67;;;;;;;;;;5014211;28;20029;-65
2023/12/07 00:10:42;;;;;;;99.28;36.85;;;;;;;;;;5014957;28;20057;-66
2023/12/07 00:13:28;;;;;;;109.30;35.47;;;;;;;;;;5014513;28;20030;-65
2023/12/07 00:16:13;;;;;;;92.18;34.92;;;;;;;;;;5015023;28;20053;-65
2023/12/07 00:18:59;;;;;;;101.63;36.63;;;;;;;;;;5015738;28;20053;-65
2023/12/07 00:21:45;;;;;;;96.32;33.63;;;;;;;;;;5014173;28;20458;-65
2023/12/07 00:24:30;;;;;;;82.45;33.00;;;;;;;;;;5015532;28;20033;-66
2023/12/07 00:27:16;;;;;;;89.60;32.80;;;;;;;;;;5014186;28;20380;-66
2023/12/07 00:30:03;;;;;;;89.72;33.08;;;;;;;;;;4995654;28;20109;-66
2023/12/07 00:32:49;;;;;;;82.60;31.58;;;;;;;;;;4980969;28;20534;-65
2023/12/07 00:35:35;;;;;;;84.65;32.30;;;;;;;;;;5012293;28;20036;-66
2023/12/07 00:38:21;;;;;;;86.82;32.88;;;;;;;;;;5013913;28;20407;-65
2023/12/07 00:41:07;;;;;;;94.97;35.13;;;;;;;;;;5013872;28;20061;-65
2023/12/07 00:43:53;;;;;;;100.68;37.17;;;;;;;;;;5014522;28;20018;-66
2023/12/07 00:46:38;;;;;;;107.10;35.33;;;;;;;;;;5013568;28;20025;-66
2023/12/07 00:49:24;;;;;;;95.13;37.17;;;;;;;;;;5014091;28;20056;-65
2023/12/07 00:52:09;;;;;;;77.70;30.27;;;;;;;;;;5013780;28;20013;-65
2023/12/07 00:54:56;;;;;;;87.05;32.50;;;;;;;;;;5014340;28;20089;-65
2023/12/07 00:57:41;;;;;;;92.93;33.13;;;;;;;;;;4998593;28;20029;-66
2023/12/07 01:00:27;;;;;;;98.13;34.42;;;;;;;;;;5015509;28;20402;-65
2023/12/07 01:03:13;;;;;;;94.80;34.03;;;;;;;;;;5013534;28;20021;-65
2023/12/07 01:05:58;;;;;;;91.57;32.13;;;;;;;;;;5014517;28;20471;-65
2023/12/07 01:08:44;;;;;;;99.25;36.30;;;;;;;;;;5013248;28;20104;-65
2023/12/07 01:11:30;;;;;;;89.43;34.63;;;;;;;;;;5013442;28;20026;-66
2023/12/07 01:14:16;;;;;;;88.68;32.28;;;;;;;;;;5013412;28;20034;-66
2023/12/07 01:17:02;;;;;;;93.07;36.05;;;;;;;;;;5012457;28;20171;-66
2023/12/07 01:19:47;;;;;;;95.22;33.67;;;;;;;;;;5013816;28;20053;-65
2023/12/07 01:22:33;;;;;;;97.68;35.30;;;;;;;;;;5012977;28;20026;-65
2023/12/07 01:25:21;;;;;;;93.60;36.08;;;;;;;;;;4994431;28;20030;-65
2023/12/07 01:28:07;;;;;;;114.90;45.88;;;;;;;;;;4998635;28;20045;-66
2023/12/07 01:30:52;;;;;;;98.60;37.25;;;;;;;;;;5013467;28;20028;-65
2023/12/07 01:33:38;;;;;;;88.97;35.25;;;;;;;;;;5012380;28;20026;-65
2023/12/07 01:36:24;;;;;;;94.40;35.33;;;;;;;;;;5013091;28;20022;-66
2023/12/07 01:39:12;;;;;;;94.72;33.35;;;;;;;;;;5013068;28;20030;-65
2023/12/07 01:41:58;;;;;;;94.93;33.63;;;;;;;;;;5013718;28;20104;-65
2023/12/07 01:44:44;;;;;;;84.75;31.70;;;;;;;;;;5013175;28;20446;-66
2023/12/07 01:47:30;;;;;;;93.00;31.42;;;;;;;;;;5012874;28;20029;-66
2023/12/07 01:50:16;;;;;;;86.25;32.15;;;;;;;;;;4999512;28;20491;-66
2023/12/07 01:53:02;;;;;;;86.05;30.60;;;;;;;;;;5012828;28;20110;-65
2023/12/07 01:55:48;;;;;;;89.63;33.92;;;;;;;;;;4998738;28;20392;-65
2023/12/07 01:58:34;;;;;;;85.38;32.00;;;;;;;;;;5012583;28;20563;-65
2023/12/07 02:01:21;;;;;;;86.90;30.27;;;;;;;;;;4991387;28;20031;-66
2023/12/07 02:04:06;;;;;;;89.20;32.75;;;;;;;;;;4979384;28;20026;-66
2023/12/07 02:06:54;;;;;;;86.22;31.50;;;;;;;;;;5004638;28;20021;-66
2023/12/07 02:09:39;;;;;;;89.22;32.53;;;;;;;;;;5012914;28;20030;-65
2023/12/07 02:12:26;;;;;;;78.38;28.48;;;;;;;;;;4999276;28;20033;-66
2023/12/07 02:15:11;;;;;;;82.30;32.92;;;;;;;;;;4998149;28;20022;-66
2023/12/07 02:18:03;;;;;;;89.20;32.75;;;;;;;;;;5012049;28;20080;-66
2023/12/07 02:21:12;;;;;;;85.50;34.00;;;;;;;;;;4998280;28;20479;-66
2023/12/07 02:23:58;;;;;;;90.00;33.33;;;;;;;;;;4997997;28;20557;-66
2023/12/07 02:26:48;;;;;;;87.22;33.38;;;;;;;;;;4998291;28;20017;-65
2023/12/07 02:29:34;;;;;;;82.43;30.83;;;;;;;;;;4998126;28;20450;-65
2023/12/07 02:32:19;;;;;;;86.90;32.25;;;;;;;;;;5013178;28;20053;-66
2023/12/07 02:35:06;;;;;;;84.32;30.30;;;;;;;;;;5012642;28;20079;-66
2023/12/07 02:37:53;;;;;;;83.03;33.28;;;;;;;;;;4997812;28;20026;-66
2023/12/07 02:40:40;;;;;;;86.82;30.55;;;;;;;;;;5013193;28;20491;-66
2023/12/07 02:43:26;;;;;;;88.50;30.13;;;;;;;;;;4998706;28;20116;-66
2023/12/07 02:46:56;;;;;;;80.70;29.63;;;;;;;;;;4999076;28;20018;-66
2023/12/07 02:49:42;;;;;;;87.18;30.10;;;;;;;;;;5012336;28;20571;-66
2023/12/07 02:52:28;;;;;;;84.28;30.73;;;;;;;;;;5012134;28;20033;-66
2023/12/07 02:55:14;;;;;;;80.72;29.92;;;;;;;;;;5011541;28;20018;-66
2023/12/07 02:58:00;;;;;;;90.68;33.33;;;;;;;;;;5012055;28;20488;-66
2023/12/07 03:00:45;;;;;;;90.97;35.90;;;;;;;;;;5012580;28;20201;-66
2023/12/07 03:03:31;;;;;;;90.18;34.72;;;;;;;;;;5012867;28;20080;-66
2023/12/07 03:06:17;;;;;;;87.20;32.58;;;;;;;;;;5012276;28;20081;-66
2023/12/07 03:09:03;;;;;;;86.72;34.17;;;;;;;;;;5013277;28;20026;-66
2023/12/07 03:11:48;;;;;;;86.82;31.23;;;;;;;;;;5013009;28;20022;-66
2023/12/07 03:14:34;;;;;;;91.90;34.67;;;;;;;;;;5011532;28;20454;-66
2023/12/07 03:17:19;;;;;;;80.45;31.25;;;;;;;;;;5012751;28;20088;-66
2023/12/07 03:20:06;;;;;;;80.32;29.83;;;;;;;;;;5015454;28;20026;-66
2023/12/07 03:22:51;;;;;;;84.95;31.58;;;;;;;;;;5015814;28;20403;-66
2023/12/07 03:25:37;;;;;;;76.97;31.40;;;;;;;;;;5016095;28;20391;-66
2023/12/07 03:28:23;;;;;;;76.45;31.35;;;;;;;;;;5016712;28;20555;-66
2023/12/07 03:31:08;;;;;;;87.63;30.92;;;;;;;;;;5016644;28;20022;-66
2023/12/07 03:33:55;;;;;;;81.57;28.67;;;;;;;;;;5016246;28;20030;-66
2023/12/07 03:36:41;;;;;;;77.88;30.42;;;;;;;;;;5001436;28;20022;-66
2023/12/07 03:39:27;;;;;;;76.65;30.77;;;;;;;;;;5017845;28;20038;-66
2023/12/07 03:42:12;;;;;;;81.88;30.67;;;;;;;;;;5014365;28;20018;-66
2023/12/07 03:44:58;;;;;;;80.75;29.13;;;;;;;;;;5013072;28;20491;-66
2023/12/07 03:47:44;;;;;;;79.05;30.60;;;;;;;;;;5016763;28;20033;-66
2023/12/07 03:50:30;;;;;;;89.20;31.20;;;;;;;;;;5014487;28;20026;-66
2023/12/07 03:53:16;;;;;;;76.40;31.75;;;;;;;;;;5014085;28;20045;-66
2023/12/07 03:56:01;;;;;;;85.10;30.38;;;;;;;;;;5006998;28;20033;-66
2023/12/07 03:58:47;;;;;;;83.30;30.70;;;;;;;;;;5002937;28;20026;-66
2023/12/07 04:01:32;;;;;;;77.55;28.98;;;;;;;;;;5015794;28;20105;-66
2023/12/07 04:04:18;;;;;;;74.80;29.67;;;;;;;;;;5014854;28;20033;-66
2023/12/07 04:07:04;;;;;;;74.53;27.90;;;;;;;;;;5014278;28;20101;-66
2023/12/07 04:09:49;;;;;;;69.60;27.58;;;;;;;;;;5014532;28;20030;-66
2023/12/07 04:12:35;;;;;;;69.75;27.85;;;;;;;;;;5014933;28;20446;-66
2023/12/07 04:15:20;;;;;;;79.65;31.98;;;;;;;;;;5014836;28;20030;-65
2023/12/07 04:18:06;;;;;;;75.57;32.35;;;;;;;;;;5014574;28;20034;-65
2023/12/07 04:20:52;;;;;;;79.45;29.02;;;;;;;;;;5014871;28;20025;-66
2023/12/07 04:23:37;;;;;;;76.97;30.33;;;;;;;;;;5014936;28;20567;-66
2023/12/07 04:26:23;;;;;;;78.18;30.50;;;;;;;;;;5002789;28;20025;-66
2023/12/07 04:29:08;;;;;;;74.65;29.60;;;;;;;;;;5013630;28;20033;-66
2023/12/07 04:31:54;;;;;;;73.90;28.17;;;;;;;;;;5013170;28;20807;-66
2023/12/07 04:34:40;;;;;;;73.72;29.13;;;;;;;;;;5014752;28;20395;-66
2023/12/07 04:37:25;;;;;;;75.13;27.48;;;;;;;;;;5014459;28;20029;-66
2023/12/07 04:40:11;;;;;;;68.30;25.80;;;;;;;;;;5013624;28;20033;-66
2023/12/07 04:42:57;;;;;;;64.60;24.02;;;;;;;;;;4996078;28;20018;-66
2023/12/07 04:45:42;;;;;;;70.60;25.77;;;;;;;;;;4994539;28;20022;-66
2023/12/07 04:48:28;;;;;;;64.43;25.88;;;;;;;;;;4994106;28;20027;-66
2023/12/07 04:51:14;;;;;;;62.97;23.58;;;;;;;;;;5003731;28;20101;-66
2023/12/07 04:53:59;;;;;;;77.32;25.85;;;;;;;;;;5014127;28;20021;-66
2023/12/07 04:56:45;;;;;;;80.93;29.98;;;;;;;;;;5012785;28;20065;-65
2023/12/07 04:59:30;;;;;;;68.32;26.83;;;;;;;;;;5012914;28;20038;-66
2023/12/07 05:02:16;;;;;;;78.80;28.75;;;;;;;;;;5014746;28;20042;-66
2023/12/07 05:05:02;;;;;;;79.20;29.73;;;;;;;;;;4999424;28;20030;-66
2023/12/07 05:07:48;;;;;;;78.28;30.50;;;;;;;;;;5013553;28;20026;-66
2023/12/07 05:10:34;;;;;;;67.47;25.95;;;;;;;;;;5014587;28;20029;-66
2023/12/07 05:13:20;;;;;;;65.05;26.75;;;;;;;;;;5008637;28;20029;-66
2023/12/07 05:16:05;;;;;;;78.97;25.75;;;;;;;;;;5013785;28;20033;-66
2023/12/07 05:18:51;;;;;;;68.43;28.67;;;;;;;;;;5014712;28;20100;-66
2023/12/07 05:21:37;;;;;;;74.90;29.63;;;;;;;;;;5013406;28;20026;-66
2023/12/07 05:24:23;;;;;;;79.30;30.20;;;;;;;;;;5013989;28;20615;-66
2023/12/07 05:27:09;;;;;;;68.75;29.13;;;;;;;;;;5012307;28;20155;-66
2023/12/07 05:29:54;;;;;;;75.40;27.88;;;;;;;;;;5012555;28;20025;-66
2023/12/07 05:32:40;;;;;;;68.32;27.92;;;;;;;;;;5014523;28;20393;-66
2023/12/07 05:35:25;;;;;;;75.05;27.90;;;;;;;;;;5014595;28;20022;-66
2023/12/07 05:38:11;;;;;;;77.82;29.42;;;;;;;;;;5013702;28;20033;-66
2023/12/07 05:40:57;;;;;;;74.78;29.63;;;;;;;;;;4998631;28;20491;-66
2023/12/07 05:43:42;;;;;;;72.43;26.85;;;;;;;;;;5013931;28;20411;-66
2023/12/07 05:46:28;;;;;;;68.75;25.02;;;;;;;;;;5013079;28;20077;-66
2023/12/07 05:49:14;;;;;;;71.88;25.67;;;;;;;;;;5013111;28;20022;-66
2023/12/07 05:52:00;;;;;;;65.05;24.48;;;;;;;;;;4998561;28;20030;-66
2023/12/07 05:54:46;;;;;;;83.93;29.15;;;;;;;;;;5013632;28;20022;-66
2023/12/07 05:57:32;;;;;;;68.25;27.00;;;;;;;;;;4997784;28;20030;-66
2023/12/07 06:00:18;;;;;;;70.28;26.23;;;;;;;;;;4994543;28;20026;-65
2023/12/07 06:03:05;;;;;;;74.18;26.88;;;;;;;;;;5014346;28;20100;-66
2023/12/07 06:05:50;;;;;;;74.55;29.73;;;;;;;;;;5013602;28;20439;-66
2023/12/07 06:08:37;;;;;;;74.32;28.00;;;;;;;;;;5012702;28;20029;-66
2023/12/07 06:11:22;;;;;;;75.55;26.13;;;;;;;;;;4997866;28;20448;-66
2023/12/07 06:14:08;;;;;;;75.60;27.85;;;;;;;;;;5012427;28;20083;-65
2023/12/07 06:16:54;;;;;;;62.08;25.65;;;;;;;;;;5012408;28;20088;-66
2023/12/07 06:19:39;;;;;;;64.68;26.33;;;;;;;;;;5013104;28;20022;-66
2023/12/07 06:22:25;;;;;;;72.35;30.83;;;;;;;;;;5013308;28;20109;-66
2023/12/07 06:25:11;;;;;;;65.80;24.73;;;;;;;;;;5012665;28;20065;-66
2023/12/07 06:27:57;;;;;;;69.03;27.25;;;;;;;;;;5012041;28;20045;-66
2023/12/07 06:30:42;;;;;;;62.28;25.42;;;;;;;;;;5012473;28;20026;-66
2023/12/07 06:33:28;;;;;;;73.03;26.27;;;;;;;;;;5012696;28;20105;-66
2023/12/07 06:36:21;;;;;;;59.47;23.75;;;;;;;;;;5002358;28;20085;-66
2023/12/07 06:39:07;;;;;;;71.68;26.55;;;;;;;;;;4979872;28;20455;-66
2023/12/07 06:41:53;;;;;;;76.47;27.13;;;;;;;;;;5002745;28;20120;-66
2023/12/07 06:44:39;;;;;;;78.03;28.75;;;;;;;;;;5013024;28;20029;-66
2023/12/07 06:47:24;;;;;;;69.68;26.75;;;;;;;;;;5012056;28;20483;-66
2023/12/07 06:50:10;;;;;;;64.80;25.25;;;;;;;;;;5011969;28;20483;-66
2023/12/07 06:52:56;;;;;;;82.43;32.67;;;;;;;;;;5011962;28;20030;-66
2023/12/07 06:55:42;;;;;;;72.70;28.52;;;;;;;;;;5012472;28;20396;-66
2023/12/07 06:58:28;;;;;;;69.40;27.75;;;;;;;;;;5011980;28;20116;-66
2023/12/07 07:01:14;;;;;;;77.88;28.05;;;;;;;;;;5012439;28;20026;-66
2023/12/07 07:03:59;;;;;;;73.53;26.73;;;;;;;;;;5012533;28;20450;-66
2023/12/07 07:06:45;;;;;;;77.90;30.08;;;;;;;;;;5012314;28;20065;-66
2023/12/07 07:09:31;;;;;;;65.35;28.67;;;;;;;;;;5012073;28;20030;-66
2023/12/07 07:12:16;;;;;;;65.97;26.52;;;;;;;;;;5010928;28;20514;-66
2023/12/07 07:15:02;;;;;;;74.75;27.52;;;;;;;;;;5011584;28;20061;-66
2023/12/07 07:17:48;;;;;;;69.30;25.80;;;;;;;;;;5012483;28;20598;-66
2023/12/07 07:20:34;;;;;;;67.70;25.83;;;;;;;;;;4993355;28;20031;-66
2023/12/07 07:23:19;;;;;;;62.13;25.45;;;;;;;;;;4996814;28;20029;-66
2023/12/07 07:26:05;;;;;;;68.03;25.27;;;;;;;;;;5013234;28;20045;-66
2023/12/07 07:28:52;;;;;;;63.20;22.45;;;;;;;;;;5012484;28;20510;-66
2023/12/07 07:31:38;;;;;;;59.20;24.63;;;;;;;;;;4998467;28;20030;-66
2023/12/07 07:34:25;;;;;;;59.30;22.00;;;;;;;;;;5010907;28;20057;-66
2023/12/07 07:37:11;;;;;;;66.45;28.42;;;;;;;;;;4998542;28;20039;-66
2023/12/07 07:39:56;;;;;;;74.25;26.38;;;;;;;;;;5012022;28;20030;-66
2023/12/07 07:42:42;;;;;;;62.38;25.85;;;;;;;;;;5011921;28;20022;-66
2023/12/07 07:45:27;;;;;;;74.57;27.42;;;;;;;;;;5011716;28;20018;-66
2023/12/07 07:48:13;;;;;;;66.00;25.73;;;;;;;;;;5011651;28;20053;-65
2023/12/07 07:50:59;;;;;;;71.53;26.70;;;;;;;;;;5011542;28;20057;-65
2023/12/07 07:53:44;;;;;;;85.63;29.38;;;;;;;;;;5011029;28;20022;-66
2023/12/07 07:56:30;;;;;;;62.50;26.00;;;;;;;;;;4992468;28;20058;-66
2023/12/07 07:59:16;;;;;;;60.70;23.90;;;;;;;;;;5011587;28;20195;-66
2023/12/07 08:02:02;;;;;;;65.88;24.67;;;;;;;;;;5012431;28;20109;-66
2023/12/07 08:04:48;;;;;;;64.93;27.35;;;;;;;;;;5010688;28;20399;-66
2023/12/07 08:07:33;;;;;;;72.60;27.95;;;;;;;;;;5013455;28;20033;-66
2023/12/07 08:10:20;;;;;;;81.55;26.92;;;;;;;;;;5015193;28;20026;-65
2023/12/07 08:13:07;;;;;;;89.97;32.28;;;;;;;;;;5003429;28;20105;-66
2023/12/07 08:15:53;;;;;;;78.68;29.45;;;;;;;;;;5013449;28;20109;-66
2023/12/07 08:18:39;;;;;;;78.60;30.85;;;;;;;;;;5015192;28;20022;-66
2023/12/07 08:21:25;;;;;;;76.28;28.38;;;;;;;;;;5015524;28;20030;-66
2023/12/07 08:24:12;;;;;;;74.53;28.83;;;;;;;;;;5013048;28;20113;-66
2023/12/07 08:26:58;;;;;;;67.75;29.88;;;;;;;;;;5013205;28;20076;-66
2023/12/07 08:29:43;;;;;;;72.75;29.45;;;;;;;;;;5014920;28;20022;-66
2023/12/07 08:32:29;;;;;;;75.80;29.50;;;;;;;;;;5014540;28;20474;-66
2023/12/07 08:35:15;;;;;;;78.97;30.45;;;;;;;;;;5013847;28;20398;-66
2023/12/07 08:38:00;;;;;;;69.97;28.92;;;;;;;;;;5013965;28;20022;-65
2023/12/07 08:40:46;;;;;;;73.93;27.65;;;;;;;;;;5013037;28;20057;-66
2023/12/07 08:43:32;;;;;;;84.35;30.92;;;;;;;;;;5014831;28;20462;-66
2023/12/07 08:46:17;;;;;;;81.53;30.88;;;;;;;;;;5014300;28;20100;-65
2023/12/07 08:49:03;;;;;;;77.70;30.45;;;;;;;;;;5002171;28;20033;-65
2023/12/07 08:51:49;;;;;;;77.00;30.02;;;;;;;;;;5013922;28;20180;-65
2023/12/07 08:54:36;;;;;;;79.85;30.80;;;;;;;;;;5014292;28;20022;-65
2023/12/07 08:57:21;;;;;;;66.78;26.50;;;;;;;;;;5013919;28;20064;-65
2023/12/07 09:00:07;;;;;;;70.53;28.05;;;;;;;;;;5013214;28;20550;-66
2023/12/07 09:02:53;;;;;;;64.45;27.35;;;;;;;;;;5014100;28;20064;-65
2023/12/07 09:05:39;;;;;;;74.38;29.35;;;;;;;;;;5013761;28;20018;-65
2023/12/07 09:08:24;;;;;;;75.65;27.20;;;;;;;;;;5014579;28;20123;-65
2023/12/07 09:11:10;;;;;;;72.05;29.48;;;;;;;;;;5012658;28;20026;-65
2023/12/07 09:13:56;;;;;;;82.95;30.52;;;;;;;;;;5014647;28;20528;-65
2023/12/07 09:16:44;;;;;;;85.70;31.00;;;;;;;;;;4998477;28;20034;-65
2023/12/07 09:19:30;;;;;;;83.13;31.98;;;;;;;;;;5014814;28;20025;-65
2023/12/07 09:22:16;;;;;;;82.50;33.53;;;;;;;;;;5012916;28;20030;-65
2023/12/07 09:25:02;;;;;;;82.88;31.52;;;;;;;;;;5014129;28;20032;-65
2023/12/07 09:27:47;;;;;;;82.28;30.58;;;;;;;;;;5005471;28;20100;-65
2023/12/07 09:30:33;;;;;;;87.15;31.02;;;;;;;;;;5013771;28;20525;-66
2023/12/07 09:33:19;;;;;;;91.80;34.38;;;;;;;;;;4998752;28;20033;-65
2023/12/07 09:36:08;;;;;;;88.38;31.55;;;;;;;;;;5013592;28;20488;-66
2023/12/07 09:38:53;;;;;;;95.28;34.85;;;;;;;;;;5013929;28;20400;-66
2023/12/07 09:41:39;;;;;;;87.72;31.48;;;;;;;;;;5012843;28;20407;-66
2023/12/07 09:44:25;;;;;;;77.05;32.72;;;;;;;;;;4999818;28;20022;-65
2023/12/07 09:47:11;;;;;;;85.30;31.30;;;;;;;;;;4999457;28;20025;-65
2023/12/07 09:49:57;;;;;;;77.47;31.13;;;;;;;;;;5012690;28;20025;-65
2023/12/07 09:52:43;;;;;;;75.43;30.02;;;;;;;;;;5014646;28;20037;-65
2023/12/07 09:55:30;;;;;;;84.15;32.92;;;;;;;;;;5013160;28;20506;-65
2023/12/07 09:58:16;;;;;;;80.45;32.20;;;;;;;;;;5013078;28;20061;-65
2023/12/07 10:01:02;;;;;;;97.18;34.63;;;;;;;;;;5013840;28;20017;-66
2023/12/07 10:03:48;;;;;;;82.30;31.83;;;;;;;;;;4999197;28;20112;-65
2023/12/07 10:06:43;;;;;;;89.63;32.90;;;;;;;;;;5012505;28;20560;-65
2023/12/07 10:09:28;;;;;;;86.22;30.67;;;;;;;;;;5013091;28;20044;-65
2023/12/07 10:12:14;;;;;;;84.95;31.40;;;;;;;;;;5013518;28;20030;-65
2023/12/07 10:15:03;;;;;;;86.90;35.53;;;;;;;;;;5013323;28;20022;-65
2023/12/07 10:17:52;;;;;;;85.10;32.10;;;;;;;;;;5012000;28;20425;-65
2023/12/07 10:20:45;;;;;;;86.15;34.03;;;;;;;;;;4999893;28;20109;-65
2023/12/07 10:23:31;;;;;;;76.72;30.52;;;;;;;;;;5012582;28;20407;-65
2023/12/07 10:26:20;;;;;;;81.65;32.78;;;;;;;;;;5012782;28;20018;-65
2023/12/07 10:29:06;;;;;;;86.65;33.28;;;;;;;;;;5012942;28;20026;-65
2023/12/07 10:32:00;;;;;;;88.68;33.58;;;;;;;;;;4999390;28;20450;-65
2023/12/07 10:34:45;;;;;;;87.32;33.05;;;;;;;;;;5013076;28;20034;-65
2023/12/07 10:37:31;;;;;;;89.38;33.30;;;;;;;;;;5011989;28;20037;-65
2023/12/07 10:40:17;;;;;;;90.43;32.13;;;;;;;;;;5012840;28;20499;-65
2023/12/07 10:43:05;;;;;;;92.60;34.03;;;;;;;;;;4998329;28;20036;-66
2023/12/07 10:45:51;;;;;;;99.25;35.05;;;;;;;;;;5011029;28;20403;-65
2023/12/07 10:48:38;;;;;;;94.47;34.80;;;;;;;;;;5012892;28;20034;-66
2023/12/07 10:51:31;;;;;;;89.90;32.90;;;;;;;;;;4998975;28;20080;-65
2023/12/07 10:54:22;;;;;;;85.03;31.15;;;;;;;;;;5012159;28;20045;-65
2023/12/07 10:57:08;;;;;;;82.28;29.75;;;;;;;;;;4997532;28;20088;-65
2023/12/07 10:59:55;;;;;;;70.95;27.98;;;;;;;;;;4998374;28;20022;-66
2023/12/07 11:02:41;;;;;;;78.05;30.60;;;;;;;;;;4998813;28;20083;-65
2023/12/07 11:05:29;;;;;;;80.03;31.35;;;;;;;;;;4998629;28;20021;-66
2023/12/07 11:08:37;;;;;;;86.03;29.88;;;;;;;;;;5011794;28;20072;-65
2023/12/07 11:12:01;;;;;;;77.85;30.05;;;;;;;;;;4999151;28;20060;-65
2023/12/07 11:14:46;;;;;;;75.63;31.38;;;;;;;;;;4941520;28;20031;-65
2023/12/07 11:17:50;;;;;;;82.38;31.70;;;;;;;;;;4997034;28;20037;-65
2023/12/07 11:20:44;;;;;;;81.40;30.30;;;;;;;;;;5008339;28;20529;-66
2023/12/07 11:23:31;;;;;;;77.20;29.70;;;;;;;;;;5009931;28;20030;-66
2023/12/07 11:26:22;;;;;;;90.10;31.15;;;;;;;;;;5009056;28;20542;-66
2023/12/07 11:29:08;;;;;;;74.68;30.90;;;;;;;;;;5002449;28;20030;-66
2023/12/07 11:32:04;;;;;;;86.60;30.52;;;;;;;;;;5011414;28;20049;-66
2023/12/07 11:34:52;;;;;;;81.97;31.00;;;;;;;;;;5009372;28;20041;-66
2023/12/07 11:38:11;;;;;;;79.53;32.40;;;;;;;;;;5017740;28;20045;-66
2023/12/07 11:40:57;;;;;;;71.32;28.80;;;;;;;;;;5017403;28;20056;-67
2023/12/07 11:43:44;;;;;;;78.15;31.02;;;;;;;;;;5014880;28;20502;-68
2023/12/07 11:46:29;;;;;;;81.65;30.27;;;;;;;;;;5024629;28;20018;-68
2023/12/07 11:49:15;;;;;;;74.22;30.08;;;;;;;;;;5021233;28;20026;-68
2023/12/07 11:52:12;;;;;;;73.72;27.98;;;;;;;;;;5003923;28;20491;-67
2023/12/07 11:54:57;;;;;;;71.57;27.23;;;;;;;;;;5024048;28;20036;-69
2023/12/07 11:57:43;;;;;;;64.43;26.02;;;;;;;;;;5021264;28;20035;-68
2023/12/07 12:00:29;;;;;;;74.40;29.17;;;;;;;;;;5008350;28;20021;-68
2023/12/07 12:03:15;;;;;;;73.93;28.40;;;;;;;;;;5007348;28;20089;-68
2023/12/07 12:06:04;;;;;;;72.18;28.10;;;;;;;;;;5023785;28;20513;-68
2023/12/07 12:08:49;;;;;;;70.70;28.15;;;;;;;;;;5018560;28;20034;-68
2023/12/07 12:11:35;;;;;;;66.22;25.65;;;;;;;;;;5024244;28;20025;-68
2023/12/07 12:14:21;;;;;;;66.95;24.35;;;;;;;;;;5021446;28;20491;-69
2023/12/07 12:17:08;;;;;;;69.15;27.38;;;;;;;;;;5005821;28;20038;-68
2023/12/07 12:19:54;;;;;;;72.28;26.50;;;;;;;;;;5005913;28;20026;-69
2023/12/07 12:22:40;;;;;;;71.22;27.13;;;;;;;;;;5017193;28;20026;-69
2023/12/07 12:25:30;;;;;;;73.57;27.05;;;;;;;;;;5016306;28;20383;-69
2023/12/07 12:28:17;;;;;;;68.72;27.23;;;;;;;;;;5011447;28;20100;-69
2023/12/07 12:31:03;;;;;;;72.75;27.65;;;;;;;;;;4987210;28;20029;-69
2023/12/07 12:33:52;;;;;;;74.68;28.58;;;;;;;;;;5007224;28;20109;-69
2023/12/07 12:36:38;;;;;;;76.70;29.50;;;;;;;;;;5011377;28;20022;-69
2023/12/07 12:39:30;;;;;;;73.07;29.13;;;;;;;;;;5018878;28;20033;-69
2023/12/07 12:42:15;;;;;;;70.88;27.38;;;;;;;;;;5016146;28;20065;-68
2023/12/07 12:45:03;;;;;;;68.43;28.15;;;;;;;;;;5021032;28;20025;-69
2023/12/07 12:47:48;;;;;;;76.03;26.67;;;;;;;;;;5045538;23;20505;-71
2023/12/07 12:50:39;;;;;;;67.32;27.95;;;;;;;;;;5011846;28;20105;-70
2023/12/07 12:53:27;;;;;;;71.85;25.60;;;;;;;;;;5007284;28;20052;-69
2023/12/07 12:56:14;;;;;;;59.30;23.90;;;;;;;;;;5022466;28;20033;-71
2023/12/07 12:58:59;;;;;;;62.70;23.58;;;;;;;;;;4993291;28;20519;-73
2023/12/07 13:01:45;;;;;;;63.83;23.98;;;;;;;;;;4984525;28;20038;-70
2023/12/07 13:04:31;;;;;;;61.92;25.25;;;;;;;;;;5003556;28;20084;-73
2023/12/07 13:07:16;;;;;;;59.45;23.20;;;;;;;;;;4979785;28;20440;-73
2023/12/07 13:10:03;;;;;;;70.10;26.55;;;;;;;;;;4984079;28;20038;-73
2023/12/07 13:12:48;;;;;;;63.22;24.83;;;;;;;;;;4987278;28;20034;-73
2023/12/07 13:15:34;;;;;;;74.05;26.85;;;;;;;;;;4981882;28;20027;-72
2023/12/07 13:18:20;;;;;;;70.35;26.73;;;;;;;;;;4984240;28;20030;-73
2023/12/07 13:21:06;;;;;;;66.43;26.42;;;;;;;;;;4979231;28;20026;-74
2023/12/07 13:23:51;;;;;;;68.25;25.90;;;;;;;;;;4988326;28;20062;-73
2023/12/07 13:26:37;;;;;;;73.18;24.85;;;;;;;;;;4966348;28;20022;-73
2023/12/07 13:29:23;;;;;;;67.35;26.48;;;;;;;;;;4981695;28;20408;-73
2023/12/07 13:32:10;;;;;;;65.03;24.27;;;;;;;;;;4984673;28;20053;-73
2023/12/07 13:34:55;;;;;;;75.10;28.88;;;;;;;;;;4982148;28;20034;-72
2023/12/07 13:37:41;;;;;;;70.63;26.85;;;;;;;;;;4997482;28;20150;-72
2023/12/07 13:40:27;;;;;;;76.78;28.67;;;;;;;;;;4970734;28;20030;-72
2023/12/07 13:43:12;;;;;;;66.88;25.75;;;;;;;;;;5001462;28;20026;-71
2023/12/07 13:45:58;;;;;;;78.00;29.45;;;;;;;;;;4999942;28;20084;-71
2023/12/07 13:48:45;;;;;;;70.43;25.90;;;;;;;;;;4994349;28;20030;-70
2023/12/07 13:51:30;;;;;;;69.80;26.02;;;;;;;;;;4995288;28;20487;-71
2023/12/07 13:54:16;;;;;;;62.85;25.25;;;;;;;;;;4982829;28;20026;-70
2023/12/07 13:57:03;;;;;;;71.32;26.88;;;;;;;;;;5001623;28;20033;-71
2023/12/07 13:59:50;;;;;;;75.10;25.85;;;;;;;;;;4992911;28;20022;-70
2023/12/07 14:02:35;;;;;;;58.78;23.67;;;;;;;;;;4982360;28;20081;-71
2023/12/07 14:05:22;;;;;;;66.60;23.73;;;;;;;;;;4997670;28;20108;-72
2023/12/07 14:08:08;;;;;;;66.05;26.20;;;;;;;;;;5000654;28;20022;-72
2023/12/07 14:10:54;;;;;;;61.53;23.55;;;;;;;;;;4985851;28;20038;-72
2023/12/07 14:13:39;;;;;;;69.03;25.20;;;;;;;;;;4998722;28;20026;-71
2023/12/07 14:16:25;;;;;;;67.82;24.60;;;;;;;;;;4999308;28;20105;-71
2023/12/07 14:19:11;;;;;;;65.13;25.48;;;;;;;;;;5000654;28;20450;-71
2023/12/07 14:21:56;;;;;;;66.20;25.55;;;;;;;;;;4980951;28;20030;-71
2023/12/07 14:24:42;;;;;;;65.13;24.40;;;;;;;;;;4990955;28;20104;-71
2023/12/07 14:27:28;;;;;;;64.00;24.95;;;;;;;;;;4984392;28;20077;-71
2023/12/07 14:30:16;;;;;;;60.30;24.13;;;;;;;;;;4984662;28;20030;-71
2023/12/07 14:33:02;;;;;;;59.97;24.55;;;;;;;;;;4981090;28;20029;-71
2023/12/07 14:35:48;;;;;;;60.55;21.15;;;;;;;;;;4964711;28;20038;-72
2023/12/07 14:38:34;;;;;;;61.85;23.40;;;;;;;;;;4998006;28;20470;-68
2023/12/07 14:41:19;;;;;;;61.15;24.35;;;;;;;;;;4966105;28;20037;-71
2023/12/07 14:44:05;;;;;;;49.40;20.00;;;;;;;;;;4981450;28;20022;-71
2023/12/07 14:46:51;;;;;;;61.72;24.15;;;;;;;;;;4977804;28;20105;-71
2023/12/07 14:49:36;;;;;;;63.88;25.52;;;;;;;;;;4985217;28;20427;-70
2023/12/07 14:52:24;;;;;;;69.65;24.92;;;;;;;;;;4986753;28;20030;-70
2023/12/07 14:55:09;;;;;;;57.35;23.48;;;;;;;;;;5001129;28;20030;-70
2023/12/07 14:57:56;;;;;;;54.85;22.92;;;;;;;;;;4995134;28;20116;-70
2023/12/07 15:00:41;;;;;;;69.82;25.35;;;;;;;;;;4988378;28;20018;-70
2023/12/07 15:03:27;;;;;;;61.72;22.92;;;;;;;;;;4988241;28;20121;-71
2023/12/07 15:06:14;;;;;;;67.03;25.58;;;;;;;;;;4990296;28;20026;-71
2023/12/07 15:09:00;;;;;;;61.50;25.05;;;;;;;;;;4996489;28;20076;-70
2023/12/07 15:11:46;;;;;;;69.38;28.05;;;;;;;;;;5002700;28;20030;-70
2023/12/07 15:14:32;;;;;;;70.93;28.77;;;;;;;;;;4983456;28;20026;-70
2023/12/07 15:17:17;;;;;;;65.45;26.15;;;;;;;;;;4976963;28;20049;-71
2023/12/07 15:20:03;;;;;;;70.75;27.45;;;;;;;;;;4978543;28;20033;-71
2023/12/07 15:22:49;;;;;;;76.55;29.60;;;;;;;;;;4982598;28;20026;-71
2023/12/07 15:25:35;;;;;;;65.65;28.70;;;;;;;;;;4995570;28;20021;-71
2023/12/07 15:28:21;;;;;;;69.53;27.77;;;;;;;;;;5005881;28;20036;-71
2023/12/07 15:31:07;;;;;;;69.20;25.83;;;;;;;;;;5002217;28;20109;-72
2023/12/07 15:33:53;;;;;;;77.15;27.80;;;;;;;;;;4991489;28;20030;-72
2023/12/07 15:36:38;;;;;;;64.80;25.60;;;;;;;;;;4987077;28;20491;-71
2023/12/07 15:39:24;;;;;;;68.00;27.05;;;;;;;;;;4987013;28;20029;-71
2023/12/07 15:42:11;;;;;;;72.00;25.38;;;;;;;;;;5000955;28;20109;-71
2023/12/07 15:44:56;;;;;;;69.25;26.55;;;;;;;;;;4988390;28;20034;-71
2023/12/07 15:47:42;;;;;;;80.80;25.23;;;;;;;;;;5003599;28;20033;-71
2023/12/07 15:50:28;;;;;;;72.82;26.25;;;;;;;;;;5004941;28;20037;-72
2023/12/07 15:53:17;;;;;;;71.38;25.73;;;;;;;;;;4986492;28;20117;-72
2023/12/07 15:56:03;;;;;;;78.10;26.75;;;;;;;;;;4992139;28;20054;-72
2023/12/07 15:58:49;;;;;;;73.22;28.50;;;;;;;;;;5001564;28;20022;-71
2023/12/07 16:01:34;;;;;;;70.35;27.08;;;;;;;;;;4980198;28;20026;-71
2023/12/07 16:04:20;;;;;;;72.15;27.65;;;;;;;;;;4994574;28;20027;-72
2023/12/07 16:07:06;;;;;;;69.13;27.30;;;;;;;;;;4994618;28;20019;-72
2023/12/07 16:09:52;;;;;;;69.53;24.35;;;;;;;;;;4967924;28;20065;-73